Time;durP1;ratioP1;P1;durP2;ratioP2;P2;SDS_P1;SDS_P2;PMS_P1;PMS_P2;Temp;Humidity;BMP_temperature;BMP_pressure;BME280_temperature;BME280_humidity;BME280_pressure;Samples;Min_cycle;Max_cycle;Signal;HPM_P1;HPM_P2
2022/06/27 00:01:18;;;;;;;3.10;0.73;;;;;;;14.23;54.31;99833.81;5027176;28;20461;-49
2022/06/27 00:03:45;;;;;;;4.38;0.50;;;;;;;14.20;53.62;99824.31;5029941;28;20128;-45
2022/06/27 00:06:12;;;;;;;3.90;0.47;;;;;;;14.21;54.23;99825.16;5025643;28;20098;-45
2022/06/27 00:08:38;;;;;;;2.55;0.43;;;;;;;14.18;53.87;99814.81;5015107;28;20057;-47
2022/06/27 00:11:05;;;;;;;2.22;1.00;;;;;;;14.15;53.72;99810.50;5005260;28;20049;-46
2022/06/27 00:13:32;;;;;;;2.35;0.40;;;;;;;14.11;54.96;99814.94;4983640;28;20766;-44
2022/06/27 00:15:59;;;;;;;4.53;0.95;;;;;;;14.09;54.91;99811.50;5008107;28;20054;-48
2022/06/27 00:18:38;;;;;;;4.85;0.43;;;;;;;14.06;54.65;99811.59;5021756;28;20073;-46
2022/06/27 00:21:09;;;;;;;6.25;0.70;;;;;;;14.04;55.23;99815.94;5018216;28;20509;-49
2022/06/27 00:23:38;;;;;;;2.95;1.10;;;;;;;14.03;55.06;99816.84;5024857;28;20490;-46
2022/06/27 00:26:06;;;;;;;6.18;0.70;;;;;;;13.99;55.03;99810.00;5024217;28;20584;-50
2022/06/27 00:28:34;;;;;;;4.97;0.68;;;;;;;13.97;56.13;99822.19;5026263;28;20140;-47
2022/06/27 00:31:03;;;;;;;5.60;1.20;;;;;;;13.92;56.40;99813.59;5024630;28;20421;-44
2022/06/27 00:33:32;;;;;;;2.83;0.80;;;;;;;13.91;56.50;99811.91;5008051;28;20045;-47
2022/06/27 00:36:00;;;;;;;4.93;0.63;;;;;;;13.87;56.50;99813.69;5022961;28;20119;-44
2022/06/27 00:38:27;;;;;;;6.70;0.70;;;;;;;13.85;55.81;99813.72;5023676;28;20053;-44
2022/06/27 00:40:53;;;;;;;4.43;0.85;;;;;;;13.82;56.08;99816.38;5021770;28;20061;-44
2022/06/27 00:43:20;;;;;;;10.65;0.82;;;;;;;13.78;57.62;99817.34;5025413;28;20049;-46
2022/06/27 00:45:47;;;;;;;3.28;0.82;;;;;;;13.78;57.16;99812.13;5022696;28;20053;-45
2022/06/27 00:48:13;;;;;;;4.43;0.90;;;;;;;13.75;56.43;99822.63;5025813;28;20053;-45
2022/06/27 00:50:40;;;;;;;5.13;0.90;;;;;;;13.72;57.97;99822.69;5017502;28;20053;-44
2022/06/27 00:53:10;;;;;;;7.82;1.15;;;;;;;13.69;57.53;99817.53;5021910;28;20107;-45
2022/06/27 00:55:36;;;;;;;7.72;1.33;;;;;;;13.68;57.50;99821.03;5002155;28;20045;-46
2022/06/27 00:58:03;;;;;;;4.80;0.60;;;;;;;13.64;58.20;99814.16;5024824;28;20053;-46
2022/06/27 01:00:31;;;;;;;4.93;1.17;;;;;;;13.61;58.72;99817.66;5021803;28;20046;-45
2022/06/27 01:02:57;;;;;;;4.07;0.85;;;;;;;13.58;57.85;99815.97;5022536;28;20053;-47
2022/06/27 01:05:24;;;;;;;3.28;0.47;;;;;;;13.54;58.05;99811.72;5023760;28;20572;-45
2022/06/27 01:07:51;;;;;;;3.25;0.60;;;;;;;13.53;58.72;99820.41;5025163;28;20103;-45
2022/06/27 01:10:18;;;;;;;3.40;0.63;;;;;;;13.51;58.09;99819.56;5021850;28;20053;-45
2022/06/27 01:12:45;;;;;;;3.88;0.90;;;;;;;13.49;58.33;99823.97;5024132;28;20674;-45
2022/06/27 01:15:12;;;;;;;3.38;1.02;;;;;;;13.46;59.25;99821.38;5023462;28;20773;-44
2022/06/27 01:17:39;;;;;;;4.72;0.73;;;;;;;13.45;59.41;99830.91;5027242;28;20497;-45
2022/06/27 01:20:07;;;;;;;7.32;0.70;;;;;;;13.43;59.76;99829.25;5027111;28;20501;-44
2022/06/27 01:22:34;;;;;;;7.88;0.70;;;;;;;13.39;59.91;99822.38;5025763;28;20053;-49
2022/06/27 01:25:01;;;;;;;7.20;0.82;;;;;;;13.36;59.96;99821.56;5023461;28;20526;-45
2022/06/27 01:27:28;;;;;;;3.97;0.73;;;;;;;13.36;59.03;99826.75;5024871;28;20045;-46
2022/06/27 01:29:55;;;;;;;7.43;1.20;;;;;;;13.34;58.70;99823.31;5022780;28;20046;-46
2022/06/27 01:32:22;;;;;;;5.93;1.15;;;;;;;13.33;59.36;99826.81;5005033;28;20567;-50
2022/06/27 01:34:48;;;;;;;4.32;0.75;;;;;;;13.31;59.33;99828.56;5021253;28;20049;-48
2022/06/27 01:37:15;;;;;;;6.80;0.80;;;;;;;13.30;60.54;99826.00;5021555;28;20041;-48
2022/06/27 01:39:42;;;;;;;4.45;0.60;;;;;;;13.29;60.24;99829.47;5024421;28;20045;-48
2022/06/27 01:42:08;;;;;;;7.10;0.85;;;;;;;13.25;60.67;99828.69;5024228;28;20164;-47
2022/06/27 01:44:35;;;;;;;7.38;1.38;;;;;;;13.23;60.74;99836.53;5023358;28;20065;-45
2022/06/27 01:49:39;;;;;;;3.75;0.93;;;;;;;13.24;60.50;99832.16;5095452;27;20394;-45
2022/06/27 01:52:07;;;;;;;8.50;1.13;;;;;;;13.23;60.55;99841.72;5102296;28;20414;-47
2022/06/27 01:54:35;;;;;;;7.93;1.38;;;;;;;13.23;60.71;99843.44;5113800;27;20056;-45
2022/06/27 01:57:03;;;;;;;6.28;1.33;;;;;;;13.21;60.73;99837.44;5099577;28;20055;-48
2022/06/27 01:59:31;;;;;;;8.43;1.23;;;;;;;13.20;60.99;99835.69;5099663;28;20109;-46
2022/06/27 02:01:59;;;;;;;7.38;1.73;;;;;;;13.18;61.35;99837.47;5099936;28;20055;-45
2022/06/27 02:04:29;;;;;;;3.78;0.82;;;;;;;13.17;60.86;99840.97;5100784;28;20039;-46
2022/06/27 02:06:57;;;;;;;6.00;1.00;;;;;;;13.17;60.69;99846.19;5103316;28;20051;-47
2022/06/27 02:09:24;;;;;;;3.47;1.13;;;;;;;13.15;61.10;99837.53;5100132;28;20044;-45
2022/06/27 02:11:54;;;;;;;6.63;0.82;;;;;;;13.13;61.59;99834.94;5082766;28;20664;-48
2022/06/27 02:14:21;;;;;;;2.60;0.98;;;;;;;13.10;61.84;99841.06;5100847;28;20055;-47
2022/06/27 02:16:48;;;;;;;8.27;1.17;;;;;;;13.08;61.33;99842.81;5099122;28;20044;-50
2022/06/27 02:19:18;;;;;;;4.55;1.42;;;;;;;13.06;62.32;99843.72;5097484;28;20109;-44
2022/06/27 02:21:46;;;;;;;4.60;0.80;;;;;;;13.03;61.80;99838.59;5100166;28;20056;-45
2022/06/27 02:24:14;;;;;;;5.57;1.00;;;;;;;13.04;61.40;99841.16;5102843;28;20457;-45
2022/06/27 02:26:41;;;;;;;6.72;0.85;;;;;;;13.03;61.58;99839.44;5098938;28;20059;-46
2022/06/27 02:29:09;;;;;;;6.65;1.35;;;;;;;13.00;62.85;99839.50;5100588;28;20052;-45
2022/06/27 02:31:44;;;;;;;5.95;0.90;;;;;;;12.96;62.60;99832.63;5098263;28;20056;-47
2022/06/27 02:34:12;;;;;;;3.42;1.30;;;;;;;12.93;63.14;99832.66;5076653;28;20110;-45
2022/06/27 02:36:41;;;;;;;7.88;1.58;;;;;;;12.93;63.27;99824.88;5079588;28;20044;-47
2022/06/27 02:39:11;;;;;;;3.58;0.57;;;;;;;12.91;62.93;99827.53;5076123;28;20040;-45
2022/06/27 02:41:40;;;;;;;4.32;1.35;;;;;;;12.90;62.97;99824.94;5078682;28;20052;-46
2022/06/27 02:44:11;;;;;;;5.72;1.02;;;;;;;12.91;62.52;99824.06;5077983;28;20049;-45
2022/06/27 02:46:39;;;;;;;10.07;1.23;;;;;;;12.87;63.42;99823.22;5074096;28;20056;-45
2022/06/27 02:49:08;;;;;;;6.57;1.17;;;;;;;12.82;63.07;99825.91;5074760;28;20056;-46
2022/06/27 02:51:42;;;;;;;12.43;1.80;;;;;;;12.79;63.41;99818.16;5073315;28;20451;-45
2022/06/27 02:54:14;;;;;;;8.45;1.10;;;;;;;12.80;63.66;99822.47;5074970;28;20102;-46
2022/06/27 02:56:49;;;;;;;4.60;1.05;;;;;;;12.77;63.56;99822.50;5078479;28;20452;-45
2022/06/27 02:59:21;;;;;;;5.25;1.25;;;;;;;12.78;64.23;99819.06;5078012;27;20102;-48
2022/06/27 03:01:49;;;;;;;3.50;1.08;;;;;;;12.76;63.80;99820.81;5063093;28;20539;-47
2022/06/27 03:04:16;;;;;;;3.80;1.05;;;;;;;12.73;64.97;99810.44;5065750;28;20370;-45
2022/06/27 03:06:44;;;;;;;10.18;1.23;;;;;;;12.70;64.14;99813.13;5068609;28;20068;-48
2022/06/27 03:09:10;;;;;;;6.45;1.08;;;;;;;12.65;64.84;99807.13;5064772;28;20094;-46
2022/06/27 03:11:37;;;;;;;4.38;1.10;;;;;;;12.63;65.07;99821.88;5066096;28;20048;-46
2022/06/27 03:14:04;;;;;;;8.95;0.98;;;;;;;12.59;65.50;99818.47;5065441;28;20443;-45
2022/06/27 03:16:30;;;;;;;10.95;0.90;;;;;;;12.54;65.85;99813.34;5067929;28;20053;-46
2022/06/27 03:18:57;;;;;;;4.03;0.93;;;;;;;12.55;65.10;99812.47;5064035;28;20075;-44
2022/06/27 03:21:24;;;;;;;6.13;1.55;;;;;;;12.50;65.38;99806.47;5064934;28;20075;-45
2022/06/27 03:23:50;;;;;;;6.20;1.02;;;;;;;12.50;65.57;99806.47;5063655;28;20044;-45
2022/06/27 03:26:17;;;;;;;7.35;1.02;;;;;;;12.53;65.29;99797.78;5063358;28;20052;-47
2022/06/27 03:28:45;;;;;;;11.68;1.27;;;;;;;12.54;65.68;99799.50;5066094;28;20431;-46
2022/06/27 03:31:12;;;;;;;6.75;1.10;;;;;;;12.44;65.95;99796.19;5064856;28;20060;-46
2022/06/27 03:33:40;;;;;;;8.70;1.10;;;;;;;12.49;66.57;99791.75;5060540;28;20045;-48
2022/06/27 03:36:07;;;;;;;5.75;1.55;;;;;;;12.49;66.09;99796.94;5066094;28;20060;-48
2022/06/27 03:38:34;;;;;;;6.57;1.38;;;;;;;12.44;67.15;99798.78;5063186;28;20041;-44
2022/06/27 03:41:01;;;;;;;7.45;1.02;;;;;;;12.44;66.82;99796.19;5063188;28;20040;-46
2022/06/27 03:43:28;;;;;;;5.47;1.40;;;;;;;12.43;66.42;99794.47;5066198;28;20052;-45
2022/06/27 03:45:55;;;;;;;9.38;1.45;;;;;;;12.42;66.87;99787.53;5067535;28;20051;-44
2022/06/27 03:51:10;;;;;;;6.80;0.95;;;;;;;12.40;67.65;99786.72;5065523;28;20048;-46
2022/06/27 03:53:37;;;;;;;5.55;1.35;;;;;;;12.38;67.58;99784.13;5065469;28;20055;-43
2022/06/27 03:56:04;;;;;;;5.80;1.13;;;;;;;12.37;68.45;99786.75;5065865;28;20565;-46
2022/06/27 03:58:31;;;;;;;8.88;1.42;;;;;;;12.36;68.01;99790.25;5064582;28;20739;-45
2022/06/27 04:00:57;;;;;;;6.10;1.00;;;;;;;12.37;67.71;99782.44;5062802;28;20048;-43
2022/06/27 04:03:24;;;;;;;13.30;1.75;;;;;;;12.34;68.36;99788.50;5060735;28;20098;-48
2022/06/27 04:05:50;;;;;;;4.75;0.77;;;;;;;12.37;67.99;99786.75;5064216;28;20049;-45
2022/06/27 04:08:17;;;;;;;7.38;1.23;;;;;;;12.37;67.89;99797.13;5063144;28;20140;-44
2022/06/27 04:10:44;;;;;;;5.97;1.38;;;;;;;12.38;68.70;99793.66;5064923;28;20455;-43
2022/06/27 04:13:10;;;;;;;5.47;1.45;;;;;;;12.41;69.06;99793.63;5064390;28;20055;-44
2022/06/27 04:15:37;;;;;;;4.30;1.02;;;;;;;12.38;68.45;99798.84;5066244;28;20528;-45
2022/06/27 04:18:04;;;;;;;5.93;1.48;;;;;;;12.43;68.71;99807.44;5061916;28;20037;-48
2022/06/27 04:20:31;;;;;;;5.22;0.90;;;;;;;12.44;68.99;99802.25;5065540;28;20055;-43
2022/06/27 04:22:57;;;;;;;9.10;1.50;;;;;;;12.42;68.61;99801.38;5064678;28;20102;-44
2022/06/27 04:25:24;;;;;;;8.20;1.48;;;;;;;12.42;69.30;99800.53;5062446;28;20102;-45
2022/06/27 04:27:51;;;;;;;6.50;1.05;;;;;;;12.39;68.90;99809.22;5063474;28;20086;-45
2022/06/27 04:30:18;;;;;;;6.03;0.98;;;;;;;12.38;69.72;99819.63;5066728;28;20097;-45
2022/06/27 04:32:48;;;;;;;9.90;1.50;;;;;;;12.34;69.42;99808.44;5061728;28;20048;-45
2022/06/27 04:35:15;;;;;;;9.98;1.77;;;;;;;12.32;70.35;99808.44;5063240;28;20071;-43
2022/06/27 04:37:43;;;;;;;8.85;1.98;;;;;;;12.34;69.67;99814.47;5065176;28;20044;-45
2022/06/27 04:40:12;;;;;;;11.10;2.20;;;;;;;12.38;68.72;99807.50;5064007;28;20428;-46
2022/06/27 04:42:42;;;;;;;5.70;1.70;;;;;;;12.37;68.86;99817.91;5046616;28;20041;-45
2022/06/27 04:45:13;;;;;;;3.97;1.27;;;;;;;12.40;68.78;99817.88;5061034;28;20071;-46
2022/06/27 04:47:41;;;;;;;4.00;1.27;;;;;;;12.35;69.94;99820.53;5061376;28;20067;-48
2022/06/27 04:50:10;;;;;;;5.38;1.15;;;;;;;12.36;69.19;99826.59;5066501;28;20040;-45
2022/06/27 04:52:38;;;;;;;10.15;1.13;;;;;;;12.38;69.90;99825.69;5083369;28;20056;-44
2022/06/27 04:55:08;;;;;;;7.55;1.58;;;;;;;12.40;69.00;99828.28;5065441;28;20052;-48
2022/06/27 04:57:37;;;;;;;9.57;1.48;;;;;;;12.37;70.34;99829.19;5063320;28;20566;-45
2022/06/27 05:00:07;;;;;;;6.18;1.33;;;;;;;12.38;69.75;99832.59;5064754;28;20102;-46
2022/06/27 05:02:34;;;;;;;13.10;1.48;;;;;;;12.43;70.17;99833.44;5067071;28;20170;-47
2022/06/27 05:05:02;;;;;;;6.28;1.25;;;;;;;12.42;70.74;99827.38;5065219;28;20071;-45
2022/06/27 05:07:30;;;;;;;6.28;0.82;;;;;;;12.46;70.17;99833.34;5066553;28;20591;-45
2022/06/27 05:09:57;;;;;;;4.82;1.27;;;;;;;12.52;69.67;99828.09;5063622;28;20076;-45
2022/06/27 05:12:25;;;;;;;8.75;1.63;;;;;;;12.57;70.07;99828.88;5079195;28;20614;-46
2022/06/27 05:14:53;;;;;;;3.60;1.80;;;;;;;12.59;70.08;99824.53;5083054;28;20668;-46
2022/06/27 05:17:21;;;;;;;10.88;1.52;;;;;;;12.59;70.71;99834.91;5082849;28;20048;-48
2022/06/27 05:19:47;;;;;;;6.40;1.45;;;;;;;12.62;69.73;99827.94;5085418;28;20090;-44
2022/06/27 05:22:14;;;;;;;3.75;1.10;;;;;;;12.68;69.83;99827.88;5083942;28;20047;-47
2022/06/27 05:24:40;;;;;;;6.38;1.33;;;;;;;12.68;70.09;99828.72;5086528;28;20070;-46
2022/06/27 05:27:09;;;;;;;7.47;1.60;;;;;;;12.73;68.98;99820.84;5083516;28;20043;-44
2022/06/27 05:29:37;;;;;;;7.28;1.38;;;;;;;12.75;70.13;99824.28;5081797;28;20051;-45
2022/06/27 05:32:04;;;;;;;6.78;1.98;;;;;;;12.79;70.23;99820.75;5080375;28;20529;-44
2022/06/27 05:34:31;;;;;;;11.38;1.83;;;;;;;12.86;69.00;99821.53;5086887;28;20083;-45
2022/06/27 05:36:57;;;;;;;11.18;2.38;;;;;;;12.91;69.53;99834.44;5081465;28;20445;-46
2022/06/27 05:39:24;;;;;;;6.53;1.30;;;;;;;12.96;69.89;99832.63;5084023;28;20041;-46
2022/06/27 05:41:51;;;;;;;7.95;1.38;;;;;;;13.03;69.00;99828.22;5084995;28;20043;-44
2022/06/27 05:44:17;;;;;;;7.15;1.35;;;;;;;13.08;68.73;99831.59;5081936;28;20048;-45
2022/06/27 05:46:44;;;;;;;5.60;1.48;;;;;;;13.13;69.51;99831.50;5081631;28;20101;-46
2022/06/27 05:49:12;;;;;;;5.10;1.35;;;;;;;13.19;69.57;99834.00;5084399;28;20062;-46
2022/06/27 05:51:39;;;;;;;6.80;1.35;;;;;;;13.23;69.63;99835.66;5082538;28;20060;-45
2022/06/27 05:54:05;;;;;;;4.28;0.75;;;;;;;13.30;68.82;99837.25;5083989;28;20396;-44
2022/06/27 05:56:33;;;;;;;8.20;1.52;;;;;;;13.35;68.93;99832.84;5085835;28;20143;-45
2022/06/27 05:59:02;;;;;;;10.38;1.88;;;;;;;13.43;69.12;99831.84;5081838;28;20058;-45
2022/06/27 06:01:30;;;;;;;5.70;1.10;;;;;;;13.53;70.02;99833.44;5080788;28;20591;-44
2022/06/27 06:03:57;;;;;;;5.60;1.27;;;;;;;13.73;69.88;99829.59;5084097;28;20048;-48
2022/06/27 06:06:27;;;;;;;11.18;1.48;;;;;;;13.96;69.78;99830.88;5079365;28;20044;-44
2022/06/27 06:08:54;;;;;;;9.25;1.30;;;;;;;14.11;68.89;99835.78;5082772;28;20051;-46
2022/06/27 06:11:21;;;;;;;4.93;0.73;;;;;;;14.20;68.41;99839.94;5084429;28;20044;-47
2022/06/27 06:13:49;;;;;;;6.18;1.50;;;;;;;14.29;68.50;99843.22;5081563;28;20048;-47
2022/06/27 06:16:19;;;;;;;13.07;1.50;;;;;;;14.34;68.10;99844.84;5083172;28;20500;-45
2022/06/27 06:18:52;;;;;;;8.02;1.25;;;;;;;14.37;68.11;99847.41;5084367;28;20047;-45
2022/06/27 06:21:20;;;;;;;6.65;1.65;;;;;;;14.44;68.12;99852.44;5085681;28;20425;-45
2022/06/27 06:23:49;;;;;;;7.25;1.23;;;;;;;14.47;67.90;99849.78;5081029;28;20040;-45
2022/06/27 06:26:16;;;;;;;6.55;1.10;;;;;;;14.55;67.61;99858.28;5081949;28;20036;-47
2022/06/27 06:28:44;;;;;;;4.55;1.15;;;;;;;14.63;67.82;99869.41;5082339;28;20056;-45
2022/06/27 06:31:15;;;;;;;4.15;1.15;;;;;;;14.71;68.12;99861.41;5085855;28;20067;-44
2022/06/27 06:33:42;;;;;;;10.10;1.17;;;;;;;14.83;68.26;99867.28;5076539;28;20064;-46
2022/06/27 06:36:09;;;;;;;6.05;1.05;;;;;;;14.87;67.63;99856.75;5086570;28;20408;-44
2022/06/27 06:38:36;;;;;;;6.22;1.52;;;;;;;14.90;68.54;99872.28;5086917;28;20052;-46
2022/06/27 06:41:03;;;;;;;6.22;0.95;;;;;;;14.92;67.97;99874.03;5088234;28;20044;-45
2022/06/27 06:43:30;;;;;;;5.03;1.20;;;;;;;15.00;68.63;99866.88;5087652;28;20376;-42
2022/06/27 06:45:58;;;;;;;5.65;1.23;;;;;;;15.07;68.21;99878.88;5086092;28;20048;-44
2022/06/27 06:48:25;;;;;;;4.72;1.48;;;;;;;15.13;68.37;99873.50;5089055;28;20044;-41
2022/06/27 06:50:54;;;;;;;5.43;1.83;;;;;;;15.18;67.85;99880.34;5076862;28;20058;-43
2022/06/27 06:53:21;;;;;;;8.98;1.20;;;;;;;15.23;67.87;99883.72;5069690;28;20044;-42
2022/06/27 06:55:48;;;;;;;7.88;1.95;;;;;;;15.24;68.21;99880.22;5065787;28;20048;-44
2022/06/27 06:58:15;;;;;;;8.02;2.47;;;;;;;15.20;67.90;99889.00;5065445;28;22860;-44
2022/06/27 07:00:41;;;;;;;4.00;1.05;;;;;;;15.19;68.23;99887.31;5067380;28;20049;-40
2022/06/27 07:03:08;;;;;;;6.05;1.08;;;;;;;15.17;68.03;99882.13;5063823;28;20074;-41
2022/06/27 07:05:35;;;;;;;4.00;1.17;;;;;;;15.17;68.38;99889.94;5062106;28;20151;-41
2022/06/27 07:08:02;;;;;;;4.30;1.00;;;;;;;15.16;68.43;99896.91;5066320;28;20045;-42
2022/06/27 07:10:30;;;;;;;3.75;1.67;;;;;;;15.20;68.65;99894.22;5060663;28;20056;-47
2022/06/27 07:12:57;;;;;;;10.15;1.63;;;;;;;15.18;68.62;99891.66;5065908;28;20040;-44
2022/06/27 07:15:23;;;;;;;2.47;0.90;;;;;;;15.21;68.56;99893.31;5063600;28;20048;-43
2022/06/27 07:17:52;;;;;;;3.88;1.17;;;;;;;15.23;68.89;99899.38;5065384;28;20714;-42
2022/06/27 07:20:19;;;;;;;5.30;0.75;;;;;;;15.24;68.71;99901.06;5069826;28;20160;-44
2022/06/27 07:22:48;;;;;;;3.72;0.90;;;;;;;15.20;68.55;99899.44;5082759;28;20076;-48
2022/06/27 07:25:17;;;;;;;3.65;1.20;;;;;;;15.20;68.61;99899.44;5064288;28;20040;-43
2022/06/27 07:27:46;;;;;;;3.40;1.00;;;;;;;15.22;69.04;99902.84;5060489;28;20064;-42
2022/06/27 07:30:13;;;;;;;3.50;0.63;;;;;;;15.28;69.30;99892.28;5045231;28;20095;-45
2022/06/27 07:32:41;;;;;;;4.75;0.88;;;;;;;15.36;68.98;99900.75;5047395;28;20052;-45
2022/06/27 07:35:11;;;;;;;4.50;1.20;;;;;;;15.44;69.30;99897.97;5064080;28;20056;-46
2022/06/27 07:37:48;;;;;;;4.55;0.95;;;;;;;15.54;69.28;99898.59;5065239;28;20335;-43
2022/06/27 07:40:19;;;;;;;6.72;1.50;;;;;;;15.63;68.63;99900.09;5065902;28;20044;-41
2022/06/27 07:42:48;;;;;;;5.32;0.93;;;;;;;15.76;68.79;99898.00;5069158;28;20040;-44
2022/06/27 07:45:21;;;;;;;5.10;1.08;;;;;;;15.88;68.27;99902.91;5065938;28;20397;-46
2022/06/27 07:47:48;;;;;;;;;;;;;;;15.83;68.52;99902.19;5059474;28;20056;-42
2022/06/27 07:50:36;;;;;;;4.78;0.90;;;;;;;15.92;68.34;99904.56;5063665;28;19920;-41
2022/06/27 07:53:12;;;;;;;4.53;0.75;;;;;;;15.94;68.10;99907.97;5061538;28;20048;-47
2022/06/27 07:55:43;;;;;;;5.63;1.17;;;;;;;15.99;68.11;99914.84;5067134;28;20539;-44
2022/06/27 07:58:14;;;;;;;4.30;0.80;;;;;;;15.94;68.49;99907.97;5066214;28;20209;-43
2022/06/27 08:00:43;;;;;;;4.40;0.60;;;;;;;15.90;68.21;99911.56;5058304;28;20036;-43
2022/06/27 08:05:58;;;;;;;2.45;0.77;;;;;;;15.80;67.84;99917.94;5069500;28;20049;-46
2022/06/27 08:08:26;;;;;;;4.93;1.00;;;;;;;15.79;68.23;99913.59;5066565;28;20052;-45
2022/06/27 08:10:54;;;;;;;6.05;0.90;;;;;;;15.75;68.65;99918.06;5071432;28;20427;-49
2022/06/27 08:13:21;;;;;;;2.13;0.75;;;;;;;15.75;68.30;99925.91;5084358;28;20067;-47
2022/06/27 08:15:48;;;;;;;4.07;0.57;;;;;;;15.71;67.96;99921.66;5067777;28;20093;-44
2022/06/27 08:18:15;;;;;;;1.33;0.85;;;;;;;15.71;68.50;99920.78;5061030;28;20044;-45
2022/06/27 08:20:44;;;;;;;3.30;0.57;;;;;;;15.75;68.36;99917.19;5061455;28;20679;-43
2022/06/27 08:23:15;;;;;;;3.10;0.52;;;;;;;15.80;69.15;99925.75;5060781;28;20113;-45
2022/06/27 08:25:42;;;;;;;2.55;0.50;;;;;;;15.91;68.55;99922.88;5065293;28;20055;-48
2022/06/27 08:28:09;;;;;;;0.93;0.40;;;;;;;15.98;68.31;99929.69;5059180;28;20060;-42
2022/06/27 08:30:37;;;;;;;1.17;0.40;;;;;;;16.09;68.89;99931.13;5060198;28;20044;-48
2022/06/27 08:33:04;;;;;;;4.13;0.75;;;;;;;16.22;69.01;99927.28;5058875;28;20118;-47
2022/06/27 08:35:31;;;;;;;3.00;0.60;;;;;;;16.26;68.69;99928.91;5058252;28;20045;-43
2022/06/27 08:37:58;;;;;;;4.25;0.43;;;;;;;16.29;68.58;99933.19;5058799;28;20055;-43
2022/06/27 08:40:26;;;;;;;3.65;0.93;;;;;;;16.29;68.01;99930.59;5059586;28;20041;-43
2022/06/27 08:42:55;;;;;;;4.32;1.23;;;;;;;16.28;68.43;99936.72;5064399;28;20052;-46
2022/06/27 08:45:25;;;;;;;6.13;0.98;;;;;;;16.24;68.41;99935.94;5062544;28;20063;-46
2022/06/27 08:47:54;;;;;;;4.13;0.77;;;;;;;16.29;68.06;99927.97;5061602;28;20159;-43
2022/06/27 08:50:22;;;;;;;3.35;1.15;;;;;;;16.29;68.05;99930.59;5064716;28;20048;-45
2022/06/27 08:52:51;;;;;;;4.88;0.68;;;;;;;16.32;68.18;99935.72;5063646;28;20041;-43
2022/06/27 08:55:18;;;;;;;3.47;0.80;;;;;;;16.37;68.10;99938.19;5085583;28;20067;-46
2022/06/27 08:57:45;;;;;;;3.22;0.75;;;;;;;16.31;68.51;99941.81;5079965;28;20051;-43
2022/06/27 09:00:15;;;;;;;1.60;0.75;;;;;;;16.32;67.77;99944.41;5081555;28;20055;-46
2022/06/27 09:02:42;;;;;;;2.15;0.50;;;;;;;16.35;67.76;99942.63;5083482;28;20044;-42
2022/06/27 09:05:19;;;;;;;5.65;0.60;;;;;;;16.36;67.94;99939.97;5080155;28;20051;-47
2022/06/27 09:07:50;;;;;;;2.72;0.40;;;;;;;16.39;67.84;99944.25;5081267;28;20044;-44
2022/06/27 09:13:07;;;;;;;5.30;2.00;;;;;;;16.43;67.98;99946.72;5060083;27;20427;-46
2022/06/27 09:18:36;;;;;;;3.80;0.82;;;;;;;16.46;67.75;99940.56;5021825;27;20410;-44
2022/06/27 09:21:09;;;;;;;1.92;0.57;;;;;;;16.49;68.23;99950.06;4986805;28;20050;-42
2022/06/27 09:31:35;;;;;;;3.28;0.95;;;;;;;16.77;67.51;99967.53;5069076;27;20395;-43
2022/06/27 09:36:42;;;;;;;3.45;1.67;;;;;;;16.88;67.51;99962.00;5032175;28;20413;-44
2022/06/27 09:39:30;;;;;;;2.10;1.52;;;;;;;16.87;67.47;99963.75;5014567;28;20049;-43
2022/06/27 09:42:08;;;;;;;2.55;1.35;;;;;;;16.98;67.67;99968.66;5031133;28;20057;-44
2022/06/27 09:44:38;;;;;;;2.05;1.55;;;;;;;17.06;66.97;99976.31;5021582;28;20042;-42
2022/06/27 09:47:26;;;;;;;2.40;1.45;;;;;;;17.06;67.79;99963.22;5019421;28;20049;-45
2022/06/27 09:49:59;;;;;;;2.33;1.15;;;;;;;17.08;67.10;99964.03;5014507;28;20193;-44
2022/06/27 09:52:26;;;;;;;1.83;1.45;;;;;;;17.05;66.65;99974.53;5024568;28;20041;-45
2022/06/27 09:54:55;;;;;;;3.65;1.70;;;;;;;17.06;66.48;99971.91;5015751;28;20042;-42
2022/06/27 09:57:22;;;;;;;2.35;1.13;;;;;;;17.10;66.88;99983.16;5018296;28;20073;-44
2022/06/27 09:59:51;;;;;;;4.90;2.30;;;;;;;17.17;67.13;99984.69;5017675;28;20053;-42
2022/06/27 10:02:22;;;;;;;2.35;1.38;;;;;;;17.22;66.18;99981.91;5021914;28;20053;-42
2022/06/27 10:04:51;;;;;;;3.08;1.98;;;;;;;17.27;65.92;99979.16;5036859;28;20053;-42
2022/06/27 10:07:22;;;;;;;2.08;1.55;;;;;;;17.37;66.73;99983.19;5023174;28;20049;-42
2022/06/27 10:09:52;;;;;;;4.00;0.98;;;;;;;17.39;66.41;99983.97;5021228;28;20046;-43
2022/06/27 10:25:42;;;;;;;2.10;0.98;;;;;;;17.36;65.64;99981.47;5054743;27;20414;-46
2022/06/27 10:43:56;;;;;;;4.07;1.90;;;;;;;18.40;66.15;99977.09;5037277;28;20397;-44
2022/06/27 10:48:59;;;;;;;3.50;0.70;;;;;;;19.22;66.67;99981.03;5065745;27;20410;-47
2022/06/27 10:51:30;;;;;;;1.73;0.50;;;;;;;19.73;66.51;99980.72;5054609;28;20574;-46
2022/06/27 10:56:56;;;;;;;2.90;0.63;;;;;;;20.26;62.13;99973.25;5023212;28;20402;-49
2022/06/27 11:04:38;;;;;;;5.18;0.82;;;;;;;20.02;60.02;100007.59;5033786;28;20389;-45
2022/06/27 11:07:07;;;;;;;2.10;0.75;;;;;;;19.62;60.45;100009.25;5015432;28;20057;-43
2022/06/27 11:09:37;;;;;;;2.58;1.23;;;;;;;19.27;60.00;100015.88;5013712;28;20690;-46
2022/06/27 11:12:05;;;;;;;1.23;0.50;;;;;;;18.98;60.11;100025.69;5013773;28;20049;-44
2022/06/27 11:14:50;;;;;;;1.20;0.63;;;;;;;18.67;60.21;100021.59;5016321;28;20045;-44
2022/06/27 11:17:41;;;;;;;3.00;0.50;;;;;;;18.47;60.93;100028.41;5012680;28;20053;-43
2022/06/27 11:22:49;;;;;;;1.55;1.08;;;;;;;18.37;60.56;100024.41;5045640;27;20384;-43
2022/06/27 11:25:20;;;;;;;2.20;1.30;;;;;;;18.35;60.41;100023.63;5012043;28;20049;-44
2022/06/27 11:27:52;;;;;;;1.75;1.35;;;;;;;18.39;60.67;100022.59;5016171;28;20062;-43
2022/06/27 11:33:01;;;;;;;1.95;1.65;;;;;;;18.64;60.68;100026.94;5038552;27;20898;-44
2022/06/27 11:35:28;;;;;;;4.13;2.25;;;;;;;18.83;61.03;100037.63;5021455;28;20112;-45
2022/06/27 11:37:55;;;;;;;1.05;0.50;;;;;;;19.01;60.75;100036.06;5015594;28;20046;-46
2022/06/27 11:40:22;;;;;;;2.00;0.32;;;;;;;19.14;59.81;100040.88;5021657;28;20096;-45
2022/06/27 11:42:52;;;;;;;1.67;0.90;;;;;;;19.28;60.21;100045.59;5020045;28;20038;-44
2022/06/27 11:45:19;;;;;;;1.75;0.30;;;;;;;19.43;59.76;100038.00;5020262;28;20049;-44
2022/06/27 11:47:46;;;;;;;1.92;0.57;;;;;;;19.60;59.80;100042.59;5015626;28;20049;-48
2022/06/27 11:50:16;;;;;;;2.88;0.20;;;;;;;19.73;58.89;100043.78;5012566;28;20100;-48
2022/06/27 11:55:24;;;;;;;1.20;0.40;;;;;;;19.81;57.48;100040.84;5085196;27;20725;-45
2022/06/27 11:57:55;;;;;;;3.35;0.82;;;;;;;19.84;57.86;100043.38;5038694;28;20083;-46
2022/06/27 12:00:25;;;;;;;4.30;2.33;;;;;;;19.86;58.27;100048.56;5027036;28;20045;-47
2022/06/27 12:05:40;;;;;;;7.78;3.92;;;;;;;19.95;57.97;100053.41;5057211;27;20405;-48
2022/06/27 12:08:10;;;;;;;6.93;3.05;;;;;;;20.01;57.82;100050.56;5022638;28;20061;-46
2022/06/27 12:11:16;;;;;;;7.38;3.53;;;;;;;20.06;57.42;100047.72;5012336;28;20080;-45
2022/06/27 12:13:37;;;;;;;4.32;1.80;;;;;;;20.14;57.17;100042.16;5011277;28;20061;-45
2022/06/27 12:16:06;;;;;;;5.97;1.90;;;;;;;20.20;57.84;100041.91;5006163;28;20522;-44
2022/06/27 12:18:35;;;;;;;5.18;2.63;;;;;;;20.25;58.03;100047.81;4991135;28;20046;-46
2022/06/27 12:21:02;;;;;;;4.32;1.50;;;;;;;20.37;58.27;100048.19;4995892;28;20057;-45
2022/06/27 12:23:29;;;;;;;2.50;1.55;;;;;;;20.53;58.48;100041.31;5005458;28;20049;-47
2022/06/27 12:25:57;;;;;;;1.40;1.05;;;;;;;20.72;58.12;100043.13;4992677;28;20630;-48
2022/06/27 12:28:24;;;;;;;3.25;1.92;;;;;;;20.87;58.90;100046.00;5007262;28;20554;-46
2022/06/27 12:30:50;;;;;;;3.78;1.80;;;;;;;21.01;58.53;100043.59;5011994;28;20054;-47
2022/06/27 12:33:17;;;;;;;4.43;2.67;;;;;;;21.17;58.74;100045.50;5018797;28;20112;-47
2022/06/27 12:35:44;;;;;;;2.28;0.60;;;;;;;21.35;58.34;100053.47;5014701;28;20647;-48
2022/06/27 12:38:11;;;;;;;5.78;2.60;;;;;;;21.49;58.15;100053.66;5013069;28;20500;-49
2022/06/27 12:40:37;;;;;;;4.40;1.88;;;;;;;21.62;58.02;100053.06;5016222;28;20065;-47
2022/06/27 12:43:06;;;;;;;8.10;3.65;;;;;;;21.74;57.67;100052.47;5019090;28;20049;-51
2022/06/27 12:45:34;;;;;;;7.03;3.20;;;;;;;21.83;56.63;100051.19;5020153;28;20100;-48
2022/06/27 12:48:06;;;;;;;6.53;3.00;;;;;;;21.91;57.18;100059.56;5018566;28;20054;-48
2022/06/27 12:50:33;;;;;;;6.35;3.42;;;;;;;21.91;56.13;100063.97;5018452;28;20053;-48
2022/06/27 12:53:00;;;;;;;1.92;1.52;;;;;;;21.81;55.42;100063.56;5022369;28;20053;-50